(°C)
19°
19°
19°
18°
18°
18°
17°
(°C)
17°
17°
17°
16°
16°
16°
16°
SSW
SSW
SSW
SW
SW
SW
SW
(km/h)
22-38
22-38
21-37
21-36
20-34
18-31
15-27
(mm)
0
0
0
0
0
0
0
(%)
30
30
24
18
12
10
7

Elevazione del sole

/ 64°
sun-icon
UV 5
05:09
20:07
Luna calante (338°)
04:07
18:33

METAR per Barnstable (KHYA)

Ora Condizioni Temperatura/
Punto di rugiada
Vento Visibilità Meteo Nuvole Pressione Cambiamento Grezzo
LIFR 17.8°C / 17.2°C 200º 12kt 3200m Mist Vertical Visibility of 0ft. 1006 - KHYA 281656Z 20012KT 2SM BR OVC003 18/17 A2972 RMK AO2 SLP063 T01780172
LIFR 18.3°C / 17.2°C 220º 12kt Gust 18kt 1600m Mist Vertical Visibility of 0ft. - KHYA 281622Z 22012G18KT 1SM BR OVC002 18/17 A2972 RMK AO2 T01830172
LIFR 17.8°C / 17.2°C 210º 15kt Gust 22kt 1200m Mist Vertical Visibility of 0ft. 1006 - KHYA 281556Z 21015G22KT 3/4SM BR OVC002 18/17 A2972 RMK AO2 SLP064 T01780172
LIFR 17.8°C / 16.7°C 210º 14kt Gust 19kt 1200m Mist 0.13mm precipitation Overcast 300ft 1006 - KHYA 281456Z 21014G19KT 3/4SM BR OVC003 18/17 A2973 RMK AO2 RAB16E27 SLP067 P0000 60000 T01780167 58006
LIFR 17.8°C / 17.2°C 210º 11kt 800m Fog Vertical Visibility of 0ft. 1007 - KHYA 281356Z 21011KT 1/2SM FG OVC003 18/17 A2974 RMK AO2 SLP070 T01780172
LIFR 17.8°C / 17.2°C 210º 15kt 800m Fog Vertical Visibility of 0ft. 1007 - KHYA 281256Z 21015KT 1/2SM FG OVC002 18/17 A2975 RMK AO2 SLP074 T01780172
LIFR 17.8°C / 16.7°C 210º 12kt Gust 20kt 800m Fog 0.13mm precipitation Overcast 100ft 1007 - KHYA 281156Z 21012G20KT 1/2SM FG OVC001 18/17 A2974 RMK AO2 RAB21E32 SLP073 P0000 60027 70030 T01780167 10178 20167 50002
LIFR 17.2°C / 16.7°C 210º 11kt Gust 19kt 800m Light Rain Fog 0.13mm precipitation Overcast 100ft - KHYA 281127Z 21011G19KT 1/2SM -RA FG OVC001 17/17 A2974 RMK AO2 LTG DSNT NE AND E RAB21 P0000 T01720167
LIFR 17.8°C / 17.2°C 200º 10kt 1600m Mist 0.25mm precipitation Overcast 200ft 1007 - KHYA 281056Z 20010KT 1SM BR OVC002 18/17 A2975 RMK AO2 RAB04E14 SLP074 P0001 T01780172
LIFR 17.8°C / 17.2°C 210º 12kt Gust 21kt 1600m Mist 0.51mm precipitation Overcast 200ft 1007 - KHYA 280956Z 21012G21KT 1SM BR OVC002 18/17 A2974 RMK AO2 PK WND 19026/0858 LTG DSNT E RAE07B29E47 TSE02 SLP072 P0002 T01780172
LIFR 17.8°C / 17.2°C 210º 14kt Gust 22kt 1600m Light Rain Mist 0.51mm precipitation Overcast 200ft - KHYA 280942Z 21014G22KT 1SM -RA BR OVC002 18/17 A2974 RMK AO2 PK WND 19026/0858 LTG DSNT NE AND E RAE07B29 TSE02 P0002 T01780172
LIFR 17.2°C / 16.7°C 200º 13kt Gust 20kt 2000m in the Vicinity Thunderstorm Mist 0.13mm precipitation Overcast 200ft - KHYA 280925Z AUTO 20013G20KT 1 1/4SM VCTS BR OVC002 17/17 A2974 RMK AO2 PK WND 19026/0858 LTG DSNT NE RAE07 TSE02 P0000 T01720167
LIFR 17.2°C / 16.7°C 200º 14kt Gust 22kt 2000m Mist 0.13mm precipitation Overcast 200ft - KHYA 280908Z AUTO 20014G22KT 1 1/4SM BR OVC002 17/17 A2974 RMK AO2 PK WND 19026/0858 LTG DSNT N AND NE RAE07 TSE02 P0000 T01720167
LIFR 17.8°C / 16.7°C 190º 17kt Gust 25kt 2800m Light Thunderstorm Rain Mist 0.76mm precipitation Overcast 200ft 1007 - KHYA 280856Z AUTO 19017G25KT 1 3/4SM -TSRA BR OVC002 18/17 A2974 RMK AO2 LTG DSNT N RAB45 TSB45 SLP071 P0003 60024 T01780167 56012
LIFR 17°C / 17°C 200º 12kt Gust 20kt 2800m Light Thunderstorm Rain Mist 0.51mm precipitation Overcast 200ft - KHYA 280851Z AUTO 20012G20KT 1 3/4SM -TSRA BR OVC002 17/17 A2974 RMK AO2 LTG DSNT NW RAB45 TSB45 P0002
LIFR 17.2°C / 16.7°C 200º 10kt Gust 19kt 2800m Mist Vertical Visibility of 0ft. - KHYA 280814Z AUTO 20010G19KT 1 3/4SM BR OVC002 17/17 A2974 RMK AO2 LTG DSNT SW AND W T01720167
LIFR 17.8°C / 16.7°C 200º 13kt Gust 18kt 8000m Mist 5.33mm precipitation Overcast 400ft 1007 - KHYA 280756Z AUTO 20013G18KT 5SM BR OVC004 18/17 A2975 RMK AO2 RAB19E46 SLP076 P0021 T01780167
LIFR 17.8°C / 16.7°C 190º 11kt Gust 21kt 4800m Light Rain Mist 5.33mm precipitation Broken Clouds 200ft
Broken Clouds 1000ft
Overcast 2400ft
- KHYA 280740Z AUTO 19011G21KT 3SM -RA BR BKN002 BKN010 OVC024 18/17 A2976 RMK AO2 LTG DSNT NE RAB19 P0021 T01780167
LIFR 17.2°C / 16.7°C 190º 11kt Gust 17kt 2800m Mist Vertical Visibility of 0ft. - KHYA 280709Z AUTO 19011G17KT 1 3/4SM BR OVC002 17/17 A2977 RMK AO2 LTG DSNT SW T01720167
LIFR 17.2°C / 16.7°C 200º 9kt 3200m Mist 0.13mm precipitation Overcast 200ft 1008 - KHYA 280656Z AUTO 20009KT 2SM BR OVC002 17/17 A2977 RMK AO2 LTG DSNT SW RAB05E14 SLP083 P0000 T01720167
LIFR 16.7°C / 16.1°C 200º 7kt 6400m Mist Vertical Visibility of 0ft. 1009 - KHYA 280556Z AUTO 20007KT 4SM BR OVC002 17/16 A2981 RMK AO2 SLP095 60001 T01670161 10178 20167 58015
LIFR 16.7°C / 16.7°C 200º 9kt 4800m Mist Vertical Visibility of 0ft. - KHYA 280540Z AUTO 20009KT 3SM BR OVC002 17/17 A2981 RMK AO2 T01670167
LIFR 17.2°C / 16.7°C 190º 9kt 2800m Mist Vertical Visibility of 0ft. - KHYA 280505Z AUTO 19009KT 1 3/4SM BR OVC001 17/17 A2983 RMK AO2 T01720167
LIFR 17.2°C / 16.7°C 200º 9kt 3200m Mist 0.25mm precipitation Overcast 100ft 1010 - KHYA 280456Z AUTO 20009KT 2SM BR OVC001 17/17 A2984 RMK AO2 RAB35E49 SLP105 P0001 T01720167 402110150

LIFR

17.8°C / 17.2°C

[Più]
Vento 200º 12kt
Visibilità 3200m
Meteo Mist
Nuvole Vertical Visibility of 0ft.
Pressione 1006
Cambiamento -
Grezzo KHYA 281656Z 20012KT 2SM BR OVC003 18/17 A2972 RMK AO2 SLP063 T01780172

LIFR

18.3°C / 17.2°C

[Più]
Vento 220º 12kt Gust 18kt
Visibilità 1600m
Meteo Mist
Nuvole Vertical Visibility of 0ft.
Pressione
Cambiamento -
Grezzo KHYA 281622Z 22012G18KT 1SM BR OVC002 18/17 A2972 RMK AO2 T01830172

LIFR

17.8°C / 17.2°C

[Più]
Vento 210º 15kt Gust 22kt
Visibilità 1200m
Meteo Mist
Nuvole Vertical Visibility of 0ft.
Pressione 1006
Cambiamento -
Grezzo KHYA 281556Z 21015G22KT 3/4SM BR OVC002 18/17 A2972 RMK AO2 SLP064 T01780172

LIFR

17.8°C / 16.7°C

[Più]
Vento 210º 14kt Gust 19kt
Visibilità 1200m
Meteo Mist 0.13mm precipitation
Nuvole Overcast 300ft
Pressione 1006
Cambiamento -
Grezzo KHYA 281456Z 21014G19KT 3/4SM BR OVC003 18/17 A2973 RMK AO2 RAB16E27 SLP067 P0000 60000 T01780167 58006

LIFR

17.8°C / 17.2°C

[Più]
Vento 210º 11kt
Visibilità 800m
Meteo Fog
Nuvole Vertical Visibility of 0ft.
Pressione 1007
Cambiamento -
Grezzo KHYA 281356Z 21011KT 1/2SM FG OVC003 18/17 A2974 RMK AO2 SLP070 T01780172

LIFR

17.8°C / 17.2°C

[Più]
Vento 210º 15kt
Visibilità 800m
Meteo Fog
Nuvole Vertical Visibility of 0ft.
Pressione 1007
Cambiamento -
Grezzo KHYA 281256Z 21015KT 1/2SM FG OVC002 18/17 A2975 RMK AO2 SLP074 T01780172

LIFR

17.8°C / 16.7°C

[Più]
Vento 210º 12kt Gust 20kt
Visibilità 800m
Meteo Fog 0.13mm precipitation
Nuvole Overcast 100ft
Pressione 1007
Cambiamento -
Grezzo KHYA 281156Z 21012G20KT 1/2SM FG OVC001 18/17 A2974 RMK AO2 RAB21E32 SLP073 P0000 60027 70030 T01780167 10178 20167 50002

LIFR

17.2°C / 16.7°C

[Più]
Vento 210º 11kt Gust 19kt
Visibilità 800m
Meteo Light Rain Fog 0.13mm precipitation
Nuvole Overcast 100ft
Pressione
Cambiamento -
Grezzo KHYA 281127Z 21011G19KT 1/2SM -RA FG OVC001 17/17 A2974 RMK AO2 LTG DSNT NE AND E RAB21 P0000 T01720167

LIFR

17.8°C / 17.2°C

[Più]
Vento 200º 10kt
Visibilità 1600m
Meteo Mist 0.25mm precipitation
Nuvole Overcast 200ft
Pressione 1007
Cambiamento -
Grezzo KHYA 281056Z 20010KT 1SM BR OVC002 18/17 A2975 RMK AO2 RAB04E14 SLP074 P0001 T01780172

LIFR

17.8°C / 17.2°C

[Più]
Vento 210º 12kt Gust 21kt
Visibilità 1600m
Meteo Mist 0.51mm precipitation
Nuvole Overcast 200ft
Pressione 1007
Cambiamento -
Grezzo KHYA 280956Z 21012G21KT 1SM BR OVC002 18/17 A2974 RMK AO2 PK WND 19026/0858 LTG DSNT E RAE07B29E47 TSE02 SLP072 P0002 T01780172

LIFR

17.8°C / 17.2°C

[Più]
Vento 210º 14kt Gust 22kt
Visibilità 1600m
Meteo Light Rain Mist 0.51mm precipitation
Nuvole Overcast 200ft
Pressione
Cambiamento -
Grezzo KHYA 280942Z 21014G22KT 1SM -RA BR OVC002 18/17 A2974 RMK AO2 PK WND 19026/0858 LTG DSNT NE AND E RAE07B29 TSE02 P0002 T01780172

LIFR

17.2°C / 16.7°C

[Più]
Vento 200º 13kt Gust 20kt
Visibilità 2000m
Meteo in the Vicinity Thunderstorm Mist 0.13mm precipitation
Nuvole Overcast 200ft
Pressione
Cambiamento -
Grezzo KHYA 280925Z AUTO 20013G20KT 1 1/4SM VCTS BR OVC002 17/17 A2974 RMK AO2 PK WND 19026/0858 LTG DSNT NE RAE07 TSE02 P0000 T01720167

LIFR

17.2°C / 16.7°C

[Più]
Vento 200º 14kt Gust 22kt
Visibilità 2000m
Meteo Mist 0.13mm precipitation
Nuvole Overcast 200ft
Pressione
Cambiamento -
Grezzo KHYA 280908Z AUTO 20014G22KT 1 1/4SM BR OVC002 17/17 A2974 RMK AO2 PK WND 19026/0858 LTG DSNT N AND NE RAE07 TSE02 P0000 T01720167

LIFR

17.8°C / 16.7°C

[Più]
Vento 190º 17kt Gust 25kt
Visibilità 2800m
Meteo Light Thunderstorm Rain Mist 0.76mm precipitation
Nuvole Overcast 200ft
Pressione 1007
Cambiamento -
Grezzo KHYA 280856Z AUTO 19017G25KT 1 3/4SM -TSRA BR OVC002 18/17 A2974 RMK AO2 LTG DSNT N RAB45 TSB45 SLP071 P0003 60024 T01780167 56012

LIFR

17°C / 17°C

[Più]
Vento 200º 12kt Gust 20kt
Visibilità 2800m
Meteo Light Thunderstorm Rain Mist 0.51mm precipitation
Nuvole Overcast 200ft
Pressione
Cambiamento -
Grezzo KHYA 280851Z AUTO 20012G20KT 1 3/4SM -TSRA BR OVC002 17/17 A2974 RMK AO2 LTG DSNT NW RAB45 TSB45 P0002

LIFR

17.2°C / 16.7°C

[Più]
Vento 200º 10kt Gust 19kt
Visibilità 2800m
Meteo Mist
Nuvole Vertical Visibility of 0ft.
Pressione
Cambiamento -
Grezzo KHYA 280814Z AUTO 20010G19KT 1 3/4SM BR OVC002 17/17 A2974 RMK AO2 LTG DSNT SW AND W T01720167

LIFR

17.8°C / 16.7°C

[Più]
Vento 200º 13kt Gust 18kt
Visibilità 8000m
Meteo Mist 5.33mm precipitation
Nuvole Overcast 400ft
Pressione 1007
Cambiamento -
Grezzo KHYA 280756Z AUTO 20013G18KT 5SM BR OVC004 18/17 A2975 RMK AO2 RAB19E46 SLP076 P0021 T01780167

LIFR

17.8°C / 16.7°C

[Più]
Vento 190º 11kt Gust 21kt
Visibilità 4800m
Meteo Light Rain Mist 5.33mm precipitation
Nuvole Broken Clouds 200ft
Broken Clouds 1000ft
Overcast 2400ft
Pressione
Cambiamento -
Grezzo KHYA 280740Z AUTO 19011G21KT 3SM -RA BR BKN002 BKN010 OVC024 18/17 A2976 RMK AO2 LTG DSNT NE RAB19 P0021 T01780167

LIFR

17.2°C / 16.7°C

[Più]
Vento 190º 11kt Gust 17kt
Visibilità 2800m
Meteo Mist
Nuvole Vertical Visibility of 0ft.
Pressione
Cambiamento -
Grezzo KHYA 280709Z AUTO 19011G17KT 1 3/4SM BR OVC002 17/17 A2977 RMK AO2 LTG DSNT SW T01720167

LIFR

17.2°C / 16.7°C

[Più]
Vento 200º 9kt
Visibilità 3200m
Meteo Mist 0.13mm precipitation
Nuvole Overcast 200ft
Pressione 1008
Cambiamento -
Grezzo KHYA 280656Z AUTO 20009KT 2SM BR OVC002 17/17 A2977 RMK AO2 LTG DSNT SW RAB05E14 SLP083 P0000 T01720167

LIFR

16.7°C / 16.1°C

[Più]
Vento 200º 7kt
Visibilità 6400m
Meteo Mist
Nuvole Vertical Visibility of 0ft.
Pressione 1009
Cambiamento -
Grezzo KHYA 280556Z AUTO 20007KT 4SM BR OVC002 17/16 A2981 RMK AO2 SLP095 60001 T01670161 10178 20167 58015

LIFR

16.7°C / 16.7°C

[Più]
Vento 200º 9kt
Visibilità 4800m
Meteo Mist
Nuvole Vertical Visibility of 0ft.
Pressione
Cambiamento -
Grezzo KHYA 280540Z AUTO 20009KT 3SM BR OVC002 17/17 A2981 RMK AO2 T01670167

LIFR

17.2°C / 16.7°C

[Più]
Vento 190º 9kt
Visibilità 2800m
Meteo Mist
Nuvole Vertical Visibility of 0ft.
Pressione
Cambiamento -
Grezzo KHYA 280505Z AUTO 19009KT 1 3/4SM BR OVC001 17/17 A2983 RMK AO2 T01720167

LIFR

17.2°C / 16.7°C

[Più]
Vento 200º 9kt
Visibilità 3200m
Meteo Mist 0.25mm precipitation
Nuvole Overcast 100ft
Pressione 1010
Cambiamento -
Grezzo KHYA 280456Z AUTO 20009KT 2SM BR OVC001 17/17 A2984 RMK AO2 RAB35E49 SLP105 P0001 T01720167 402110150

TAF per Barnstable (KHYA)

From till


From till Wind 210º 15kt. Visibility 1600m. Mist . Overcast 300ft.
From till Wind 210º 13kt. Visibility 804.670m. Fog . Broken Clouds 300ft.
From till Wind 220º 12kt. Visibility 1200m. Mist . Broken Clouds 300ft.
From till Wind 270º 5kt. Visibility 2400m. Mist in the Vicinity Showers . Broken Clouds 300ft.
From till Wind 340º 7kt. Visibility 3200m. Mist . Broken Clouds 800ft.
From till Wind 350º 8kt. Visibility 8000m. Mist . Scattered Clouds 1000ft.
From till Wind 10º 6kt. Visibility 10km or more. Few Clouds 9000ft.

Grezzo: KHYA 281739Z 2818/2918 21015KT 1SM BR OVC003 FM282100 21013KT 1/2SM FG BKN003 FM282200 22012KT 3/4SM BR BKN003 FM290300 27005KT 1 1/2SM BR VCSH BKN003 FM290600 34007KT 2SM BR BKN008 FM290900 35008KT 5SM BR SCT010 FM291400 01006KT P6SM FEW090

Radar e nowcasting per Barnstable

Pioviggine
Lieve
Moderato
Forte
Molto forte
Grandine

Il segnaposto è situato a Barnstable. Questa animazione mostra il radar delle precipitazioni per l'ultima ora, nonché una previsione 1h. Una pioviggine o una leggera caduta di neve potrebbero essere invisibili per il radar. L'intensità delle precipitazioni è codificata a colori, dal blu chiaro all'arancione.

Immagine satellitare per Barnstable, Stati Uniti

Il segnaposto è situato a Barnstable. [Più]

L'immagine satellitare in tempo reale combina la luce visibile durante il giorno con la radiazione infrarossa durante la notte. Di notte l'immagine non è scura poiché i raggi infrarossi possono rilevare differenze di temperatura. Purtroppo, le nuvole basse e la nebbia sono difficili da distinguere dalla temperatura del suolo e possono pertanto essere quasi invisibili durante la notte. Le immagini satellitari Meteosat per l'Europa vengono aggiornate in tempo reale ogni 5 minuti. Le immagini GOES-16 / GOES-17 (Nord e Sud America) e Himawari (Asia) vengono aggiornate ogni 10 minuti.

Tornare su